Kafr el-Dauwar, Egypt
Current Conditions -  °F | °C
As of 7:00 PM on Saturday 22 Nov 2014 (Local Time) from HEAX Reporting Station
Scattered Clouds Scattered Clouds  
Wind Chill: 20°   Ceiling: Unl
Heat Index: 20°   Visibility: 6mi
Dew Point:   Wind: 13mph
Humidity: 49%   Direction: 320°NW
Pressure: 30.06"   Gusts: NA
Location:  31.13°N, 30.12°E
Report Text: HEAX 221700Z 32011KT 9999 SCT020 SCT022 20/09 Q1018 NOSIG
Loading
Personal Weather Stations






























Interactive Weather Map New forecast layout! Learn more

10-Day Weather Forecast

Advertisements
Track Severe Weather on mobile